Time;durP1;ratioP1;P1;durP2;ratioP2;P2;SDS_P1;SDS_P2;PMS_P1;PMS_P2;Temp;Humidity;BMP_temperature;BMP_pressure;BME280_temperature;BME280_humidity;BME280_pressure;Samples;Min_cycle;Max_cycle;Signal;HPM_P1;HPM_P2
2023/08/22 00:09:44;;;;;;;7.35;6.53;;;17.50;99.90;;;;;;21028937;28;20076;-60
2023/08/22 00:19:47;;;;;;;8.18;5.80;;;17.40;99.90;;;;;;21035894;28;20097;-61
2023/08/22 00:29:50;;;;;;;8.63;6.90;;;17.30;99.90;;;;;;21028934;28;20416;-61
2023/08/22 00:39:52;;;;;;;7.38;6.45;;;17.30;99.90;;;;;;21025913;28;20036;-61
2023/08/22 00:49:54;;;;;;;7.47;6.35;;;17.30;99.90;;;;;;21010474;28;20181;-61
2023/08/22 01:00:05;;;;;;;7.60;5.90;;;17.30;99.90;;;;;;21030395;28;20098;-61
2023/08/22 01:10:28;;;;;;;10.38;5.97;;;17.30;99.90;;;;;;21028307;28;20063;-61
2023/08/22 01:20:30;;;;;;;6.75;5.20;;;17.20;99.90;;;;;;21011212;28;20036;-61
2023/08/22 01:30:55;;;;;;;5.93;4.40;;;17.10;99.90;;;;;;21031274;28;20085;-60
2023/08/22 01:40:58;;;;;;;5.20;3.83;;;17.00;99.90;;;;;;20996825;28;20211;-50
2023/08/22 01:51:01;;;;;;;6.05;3.60;;;16.70;99.90;;;;;;21016997;28;20066;-60
2023/08/22 02:01:13;;;;;;;4.47;2.92;;;16.90;99.90;;;;;;21019797;28;20048;-60
2023/08/22 02:11:15;;;;;;;4.43;3.45;;;17.50;99.90;;;;;;20999361;28;20090;-60
2023/08/22 02:21:17;;;;;;;6.50;3.50;;;17.00;99.90;;;;;;21033528;28;20431;-61
2023/08/22 02:31:19;;;;;;;4.40;3.63;;;16.70;99.90;;;;;;21018695;28;20036;-61
2023/08/22 02:41:21;;;;;;;6.13;3.95;;;16.60;99.90;;;;;;21041878;28;20418;-61
2023/08/22 02:51:23;;;;;;;7.20;4.90;;;16.70;99.90;;;;;;21029441;28;20044;-60
2023/08/22 03:01:26;;;;;;;5.45;4.85;;;16.80;99.90;;;;;;21017235;28;20044;-61
2023/08/22 03:11:28;;;;;;;7.32;4.68;;;17.00;99.90;;;;;;20992672;28;20085;-51
2023/08/22 03:21:31;;;;;;;6.90;4.55;;;17.20;99.90;;;;;;21012097;28;20035;-61
2023/08/22 03:31:33;;;;;;;7.90;4.45;;;17.10;99.90;;;;;;21020804;28;20036;-61
2023/08/22 03:41:35;;;;;;;6.13;4.40;;;17.10;99.90;;;;;;20994553;28;20472;-61
2023/08/22 03:51:37;;;;;;;6.00;4.35;;;16.90;99.90;;;;;;20994211;28;20465;-61
2023/08/22 04:01:40;;;;;;;7.95;3.85;;;16.90;99.90;;;;;;20990921;28;20044;-61
2023/08/22 04:11:43;;;;;;;5.57;4.43;;;16.80;99.90;;;;;;20970574;28;20037;-48
2023/08/22 04:21:45;;;;;;;5.32;4.10;;;16.90;99.90;;;;;;21013065;28;20044;-61
2023/08/22 04:31:47;;;;;;;4.80;4.28;;;16.90;99.90;;;;;;20990340;28;20024;-61
2023/08/22 04:41:50;;;;;;;6.10;4.30;;;17.00;99.90;;;;;;21005733;28;20040;-61
2023/08/22 04:52:02;;;;;;;5.10;4.05;;;17.10;99.90;;;;;;20993433;28;20037;-60
2023/08/22 05:02:05;;;;;;;6.03;3.92;;;17.10;99.90;;;;;;20981610;28;20044;-61
2023/08/22 05:12:07;;;;;;;5.75;4.40;;;17.20;99.90;;;;;;20997403;28;20400;-61
2023/08/22 05:22:09;;;;;;;8.77;4.07;;;17.20;99.90;;;;;;20963098;28;20037;-60
2023/08/22 05:32:13;;;;;;;5.55;4.35;;;17.40;99.90;;;;;;20981756;28;20495;-49
2023/08/22 05:42:15;;;;;;;6.32;4.07;;;17.60;99.90;;;;;;20993991;28;20024;-62
2023/08/22 05:52:17;;;;;;;5.38;4.22;;;17.70;99.90;;;;;;20986974;28;20028;-61
2023/08/22 06:02:18;;;;;;;7.05;5.07;;;18.20;99.90;;;;;;20991264;28;20040;-61
2023/08/22 06:12:21;;;;;;;6.38;5.28;;;17.90;99.90;;;;;;21004657;28;20035;-61
2023/08/22 06:22:23;;;;;;;5.00;4.50;;;17.80;99.90;;;;;;20976821;28;20497;-61
2023/08/22 06:32:25;;;;;;;4.63;4.22;;;18.00;99.90;;;;;;21005585;28;20058;-60
2023/08/22 06:42:27;;;;;;;6.40;4.13;;;18.50;99.90;;;;;;21007593;28;20481;-62
2023/08/22 06:52:29;;;;;;;7.65;5.65;;;20.70;99.90;;;;;;20996442;28;20036;-64
2023/08/22 07:02:30;;;;;;;6.05;5.45;;;22.20;99.90;;;;;;21009941;28;20048;-50
2023/08/22 07:12:32;;;;;;;6.25;5.50;;;23.50;99.90;;;;;;21011838;28;20033;-65
2023/08/22 07:22:34;;;;;;;9.38;7.47;;;24.70;99.90;;;;;;20992118;28;20090;-66
2023/08/22 07:32:36;;;;;;;8.45;7.43;;;25.30;99.90;;;;;;21005262;28;20028;-66
2023/08/22 07:42:38;;;;;;;9.02;7.60;;;26.40;99.90;;;;;;21007554;28;20040;-66
2023/08/22 07:52:40;;;;;;;9.68;8.10;;;28.10;97.20;;;;;;21004875;28;20040;-67
2023/08/22 08:02:42;;;;;;;9.30;8.38;;;29.10;99.00;;;;;;21013855;28;20044;-68
2023/08/22 08:12:44;;;;;;;9.65;8.75;;;29.80;97.40;;;;;;21008246;28;20090;-64
2023/08/22 08:22:46;;;;;;;10.43;8.90;;;30.10;96.50;;;;;;21002174;28;20630;-51
2023/08/22 08:32:48;;;;;;;9.38;8.57;;;30.40;99.70;;;;;;20999271;28;20036;-66
2023/08/22 08:42:50;;;;;;;10.20;9.18;;;30.60;98.90;;;;;;21004360;28;20374;-66
2023/08/22 08:52:52;;;;;;;8.77;7.80;;;31.20;99.90;;;;;;21006368;28;20024;-66
2023/08/22 09:02:54;;;;;;;9.57;8.65;;;31.30;98.80;;;;;;21008679;28;20505;-65
2023/08/22 09:13:04;;;;;;;9.73;8.88;;;31.30;93.10;;;;;;20983125;28;20075;-64
2023/08/22 09:23:18;;;;;;;10.77;9.65;;;31.50;92.90;;;;;;21001278;28;20040;-64
2023/08/22 09:33:20;;;;;;;10.07;9.07;;;31.40;93.30;;;;;;21002683;28;20085;-64
2023/08/22 09:43:23;;;;;;;10.27;9.27;;;31.60;91.20;;;;;;20998631;28;20024;-52
2023/08/22 09:53:26;;;;;;;11.18;10.18;;;31.40;93.20;;;;;;21021418;28;20040;-63
2023/08/22 10:03:29;;;;;;;10.15;9.07;;;31.70;92.40;;;;;;21021699;28;20055;-62
2023/08/22 10:13:32;;;;;;;10.80;9.52;;;31.90;91.30;;;;;;21006019;28;20482;-62
2023/08/22 10:23:52;;;;;;;10.10;9.13;;;32.10;91.60;;;;;;21026094;28;20028;-63
2023/08/22 10:34:00;;;;;;;10.75;9.73;;;32.20;91.40;;;;;;21001224;28;20188;-62
2023/08/22 10:44:02;;;;;;;11.95;10.85;;;32.00;92.60;;;;;;21000862;28;20032;-62
2023/08/22 10:54:19;;;;;;;14.55;11.60;;;32.20;92.10;;;;;;21015883;28;20032;-61
2023/08/22 11:04:21;;;;;;;12.20;11.10;;;32.30;92.80;;;;;;20998399;28;20052;-61
2023/08/22 11:14:23;;;;;;;12.70;11.48;;;32.50;92.30;;;;;;21006975;28;20516;-62
2023/08/22 11:24:26;;;;;;;11.82;10.73;;;32.80;92.40;;;;;;21003630;28;20032;-62
2023/08/22 11:34:29;;;;;;;13.65;11.55;;;33.00;91.60;;;;;;20995410;28;20539;-61
2023/08/22 11:44:32;;;;;;;12.98;11.45;;;;;;;;;;21010143;28;20041;-62
2023/08/22 11:54:43;;;;;;;13.43;11.98;;;34.40;93.90;;;;;;21009231;28;20040;-62
2023/08/22 12:04:47;;;;;;;14.38;12.68;;;33.20;91.60;;;;;;20987793;28;20040;-63
2023/08/22 12:14:50;;;;;;;15.80;14.13;;;33.20;92.00;;;;;;20999042;28;20478;-63
2023/08/22 12:24:51;;;;;;;14.25;12.45;;;33.10;93.70;;;;;;21008090;28;20032;-63
2023/08/22 12:34:53;;;;;;;14.38;12.88;;;33.10;92.60;;;;;;20997242;28;20036;-62
2023/08/22 12:44:55;;;;;;;16.23;12.35;;;33.00;92.00;;;;;;20998157;28;20024;-62
2023/08/22 12:54:57;;;;;;;13.80;12.50;;;32.70;95.10;;;;;;20999792;28;20040;-63
2023/08/22 13:04:59;;;;;;;14.35;13.05;;;32.70;92.30;;;;;;20984272;28;20093;-63
2023/08/22 13:15:03;;;;;;;14.93;12.80;;;32.60;92.50;;;;;;21006487;28;20602;-63
2023/08/22 13:25:05;;;;;;;16.92;12.63;;;32.60;91.60;;;;;;20990712;28;20064;-63
2023/08/22 13:35:15;;;;;;;12.05;10.75;;;32.20;94.20;;;;;;20992576;28;20047;-63
2023/08/22 13:45:17;;;;;;;14.77;12.32;;;32.20;92.50;;;;;;20997101;28;20079;-63
2023/08/22 13:55:19;;;;;;;14.88;13.13;;;32.20;92.40;;;;;;20998249;28;20539;-62
2023/08/22 14:05:20;;;;;;;14.25;12.85;;;32.20;91.90;;;;;;20989186;28;20104;-63
2023/08/22 14:15:22;;;;;;;15.00;11.43;;;31.90;91.90;;;;;;21026760;28;20098;-63
2023/08/22 14:25:24;;;;;;;13.82;11.63;;;31.50;91.00;;;;;;21027046;28;20117;-59
2023/08/22 14:35:26;;;;;;;14.82;12.18;;;31.50;91.20;;;;;;21042544;28;20105;-63
2023/08/22 14:45:29;;;;;;;14.88;13.38;;;31.70;92.10;;;;;;21014189;28;20056;-64
2023/08/22 14:55:30;;;;;;;12.85;11.65;;;31.60;90.30;;;;;;21012096;28;20033;-60
2023/08/22 15:05:37;;;;;;;12.48;10.88;;;31.40;91.30;;;;;;21003217;28;20052;-63
2023/08/22 15:15:39;;;;;;;10.90;9.82;;;30.80;91.10;;;;;;21005563;28;20362;-67
2023/08/22 15:25:54;;;;;;;10.07;9.10;;;30.20;92.10;;;;;;21005713;28;20094;-63
2023/08/22 15:35:59;;;;;;;9.57;8.57;;;29.50;92.30;;;;;;21000993;28;20036;-61
2023/08/22 15:46:01;;;;;;;10.30;8.10;;;28.90;91.90;;;;;;21003333;28;20028;-56
2023/08/22 15:56:03;;;;;;;9.40;8.48;;;28.50;93.00;;;;;;21007863;28;20471;-62
2023/08/22 16:06:05;;;;;;;9.63;8.60;;;28.30;92.30;;;;;;21007562;28;20045;-61
2023/08/22 16:16:07;;;;;;;11.18;9.27;;;28.20;93.00;;;;;;20998151;28;20386;-61
2023/08/22 16:26:09;;;;;;;10.18;9.15;;;27.00;93.20;;;;;;21009437;28;20470;-61
2023/08/22 16:36:11;;;;;;;11.00;9.60;;;25.30;96.30;;;;;;20990434;28;20035;-61
2023/08/22 16:46:13;;;;;;;12.38;9.15;;;24.00;98.30;;;;;;20996543;28;20036;-60
2023/08/22 16:56:15;;;;;;;14.25;9.32;;;23.20;99.80;;;;;;21021773;28;20055;-60
2023/08/22 17:06:17;;;;;;;9.25;8.27;;;22.80;99.90;;;;;;21023120;28;20047;-60
2023/08/22 17:16:19;;;;;;;12.93;7.35;;;22.30;99.90;;;;;;21026637;28;20499;-60
2023/08/22 17:26:21;;;;;;;9.95;8.20;;;21.90;99.90;;;;;;21024475;28;20036;-60
2023/08/22 17:36:22;;;;;;;10.32;7.22;;;21.50;99.90;;;;;;21036545;28;20085;-60
2023/08/22 17:46:24;;;;;;;10.32;7.82;;;21.30;99.90;;;;;;21026510;28;20036;-60
2023/08/22 17:56:26;;;;;;;8.80;7.90;;;21.00;99.90;;;;;;21030895;28;20032;-60
2023/08/22 18:06:28;;;;;;;14.15;8.65;;;20.80;99.90;;;;;;21036416;28;20040;-60
2023/08/22 18:16:32;;;;;;;10.07;9.07;;;20.50;99.90;;;;;;21043808;28;20485;-61
2023/08/22 18:26:34;;;;;;;15.68;11.55;;;20.30;99.90;;;;;;21027382;28;20069;-60
2023/08/22 18:36:37;;;;;;;11.50;9.43;;;20.30;99.90;;;;;;21043343;28;20040;-60
2023/08/22 18:46:39;;;;;;;14.00;11.85;;;20.20;99.90;;;;;;21048277;28;20061;-60
2023/08/22 18:56:41;;;;;;;15.50;13.43;;;19.90;99.90;;;;;;21041150;28;20039;-60
2023/08/22 19:06:43;;;;;;;16.85;12.90;;;19.80;99.90;;;;;;21032508;28;20097;-60
2023/08/22 19:16:45;;;;;;;17.85;13.40;;;19.90;99.90;;;;;;21041915;28;20036;-60
2023/08/22 19:26:48;;;;;;;15.82;13.55;;;19.80;99.90;;;;;;21021563;28;20032;-60
2023/08/22 19:36:51;;;;;;;17.65;14.25;;;19.70;99.90;;;;;;21015256;28;20109;-60
2023/08/22 19:46:54;;;;;;;15.70;13.55;;;19.60;99.90;;;;;;21038191;28;20477;-60
2023/08/22 19:56:59;;;;;;;15.82;13.43;;;19.40;99.90;;;;;;21038341;28;20062;-46
2023/08/22 20:07:01;;;;;;;16.10;12.32;;;19.30;99.90;;;;;;21029917;28;20576;-60
2023/08/22 20:17:04;;;;;;;16.73;13.52;;;19.20;99.90;;;;;;21039636;28;20036;-60
2023/08/22 20:27:06;;;;;;;14.23;11.93;;;19.20;99.90;;;;;;21036654;28;20040;-60
2023/08/22 20:37:08;;;;;;;15.70;11.38;;;19.10;99.90;;;;;;21035478;28;20358;-60
2023/08/22 20:47:12;;;;;;;15.00;11.18;;;19.00;99.90;;;;;;21037210;28;20386;-47
2023/08/22 20:57:14;;;;;;;14.88;10.35;;;19.20;99.90;;;;;;21029015;28;20042;-61
2023/08/22 21:07:16;;;;;;;12.45;10.43;;;19.10;99.90;;;;;;21028361;28;20097;-60
2023/08/22 21:17:18;;;;;;;11.50;10.32;;;18.90;99.90;;;;;;21038501;28;20058;-60
2023/08/22 21:27:20;;;;;;;12.30;9.05;;;18.80;99.90;;;;;;21021673;28;20461;-61
2023/08/22 21:37:23;;;;;;;12.77;10.13;;;18.80;99.90;;;;;;21033337;28;20143;-61
2023/08/22 21:47:26;;;;;;;12.25;10.80;;;18.70;99.90;;;;;;21023542;28;20031;-60
2023/08/22 21:57:27;;;;;;;13.68;11.15;;;18.70;99.90;;;;;;21038268;28;20461;-61
2023/08/22 22:07:30;;;;;;;12.00;10.55;;;18.70;99.90;;;;;;21027131;28;20444;-60
2023/08/22 22:17:32;;;;;;;12.10;10.90;;;18.70;99.90;;;;;;21026764;28;20070;-61
2023/08/22 22:27:34;;;;;;;13.02;11.68;;;18.70;99.90;;;;;;21030167;28;20405;-61
2023/08/22 22:37:36;;;;;;;13.77;11.13;;;18.80;99.90;;;;;;21021668;28;20610;-61
2023/08/22 22:47:39;;;;;;;13.82;12.27;;;19.10;99.90;;;;;;21026427;28;20024;-46
2023/08/22 22:57:41;;;;;;;14.13;12.40;;;19.20;99.90;;;;;;21048513;28;20050;-47
2023/08/22 23:07:43;;;;;;;14.43;11.90;;;18.90;99.90;;;;;;21032478;28;20039;-60
2023/08/22 23:17:45;;;;;;;14.82;12.77;;;18.80;99.90;;;;;;21036048;28;20117;-61
2023/08/22 23:27:47;;;;;;;16.02;12.73;;;18.70;99.90;;;;;;21046884;28;20040;-60
2023/08/22 23:37:49;;;;;;;14.88;12.50;;;18.60;99.90;;;;;;21042536;28;20032;-60
2023/08/22 23:47:51;;;;;;;16.60;12.15;;;18.60;99.90;;;;;;21022062;28;20056;-61
2023/08/22 23:57:57;;;;;;;14.00;12.40;;;18.60;99.90;;;;;;21032505;28;20089;-61
